createdAt,value
2018-10-21T00:31:27.973Z,16.17
2018-10-21T00:33:56.992Z,16.73
2018-10-21T00:36:26.031Z,15.90
2018-10-21T00:38:55.165Z,17.23
2018-10-21T00:41:24.175Z,16.67
2018-10-21T00:43:53.257Z,17.83
2018-10-21T00:46:22.257Z,16.17
2018-10-21T00:48:51.261Z,17.27
2018-10-21T00:51:20.266Z,16.37
2018-10-21T00:53:50.576Z,17.93
2018-10-21T00:56:19.561Z,17.73
2018-10-21T00:58:48.581Z,18.00
2018-10-21T01:01:17.597Z,16.73
2018-10-21T01:03:46.603Z,18.83
2018-10-21T01:06:15.621Z,18.10
2018-10-21T01:08:44.634Z,17.23
2018-10-21T01:11:13.657Z,18.97
2018-10-21T01:13:42.664Z,17.47
2018-10-21T01:16:11.672Z,17.17
2018-10-21T01:18:40.691Z,17.23
2018-10-21T01:21:09.784Z,17.60
2018-10-21T01:23:38.697Z,16.47
2018-10-21T01:26:07.718Z,16.30
2018-10-21T01:28:36.706Z,17.50
2018-10-21T01:31:06.028Z,17.23
2018-10-21T01:33:35.249Z,18.30
2018-10-21T01:36:05.331Z,18.73
2018-10-21T01:38:34.302Z,16.90
2018-10-21T01:41:03.356Z,17.03
2018-10-21T01:43:33.290Z,18.37
2018-10-21T01:46:03.120Z,17.77
2018-10-21T01:48:33.424Z,18.27
2018-10-21T01:58:26.994Z,22.27
2018-10-21T02:00:55.992Z,23.53
2018-10-21T03:06:47.964Z,17.77
2018-10-21T03:09:17.068Z,18.43
2018-10-21T03:11:46.028Z,18.53
2018-10-21T03:14:15.020Z,18.03
2018-10-21T03:16:44.046Z,17.90
2018-10-21T03:19:13.058Z,18.53
2018-10-21T03:21:42.094Z,17.83
2018-10-21T03:24:11.110Z,18.60
2018-10-21T03:26:40.137Z,18.83
2018-10-21T03:34:05.830Z,18.77
2018-10-21T03:36:34.621Z,19.13
2018-10-21T03:39:05.173Z,19.23
2018-10-21T03:41:34.129Z,19.80
2018-10-21T03:44:03.260Z,20.93
2018-10-21T03:46:32.335Z,19.07
2018-10-21T03:49:01.382Z,19.43
2018-10-21T03:51:30.411Z,20.47
2018-10-21T03:53:59.432Z,20.07
2018-10-21T03:56:28.656Z,19.97
2018-10-21T03:58:57.644Z,20.87
2018-10-21T04:01:26.692Z,19.47
2018-10-21T04:03:55.696Z,20.37
2018-10-21T04:06:24.962Z,20.07
2018-10-21T04:08:53.945Z,20.00
2018-10-21T04:11:23.159Z,19.40
2018-10-21T04:13:52.176Z,20.53
2018-10-21T04:16:21.186Z,20.77
2018-10-21T04:18:50.192Z,19.57
2018-10-21T04:21:19.211Z,19.50
2018-10-21T04:23:48.217Z,20.77
2018-10-21T04:26:17.234Z,20.20
2018-10-21T04:28:46.256Z,19.80
2018-10-21T04:31:15.276Z,19.47
2018-10-21T04:33:45.325Z,20.10
2018-10-21T04:36:18.164Z,19.77
2018-10-21T04:40:05.868Z,19.10
2018-10-21T04:42:34.850Z,19.87
2018-10-21T04:45:04.295Z,19.37
2018-10-21T04:47:33.316Z,20.20
2018-10-21T04:50:03.086Z,20.53
2018-10-21T04:52:32.955Z,19.87
2018-10-21T04:55:06.901Z,19.67
2018-10-21T04:57:37.029Z,19.43
2018-10-21T05:00:08.761Z,20.90
2018-10-21T05:02:37.782Z,19.53
2018-10-21T05:05:07.601Z,18.80
2018-10-21T05:07:36.938Z,21.50
2018-10-21T05:10:16.487Z,19.77
2018-10-21T05:12:45.424Z,18.97
2018-10-21T05:15:16.552Z,19.90
2018-10-21T05:17:45.555Z,18.87
2018-10-21T05:20:14.817Z,20.20
2018-10-21T05:22:43.895Z,22.23
2018-10-21T05:25:13.004Z,26.63
2018-10-21T05:27:42.445Z,28.53
2018-10-21T05:30:12.401Z,28.13
2018-10-21T05:32:42.197Z,25.53
2018-10-21T05:35:12.601Z,23.57
2018-10-21T05:37:41.884Z,22.13
2018-10-21T05:40:12.858Z,23.00
2018-10-21T05:42:42.243Z,21.10
2018-10-21T05:45:11.300Z,22.43
2018-10-21T05:47:40.660Z,20.27
2018-10-21T05:50:10.808Z,21.53
2018-10-21T05:52:40.824Z,21.93
2018-10-21T05:55:10.440Z,23.17
2018-10-21T05:57:39.544Z,25.77
2018-10-21T06:00:13.948Z,28.00
2018-10-21T06:02:43.120Z,29.40
2018-10-21T06:05:23.404Z,28.57
2018-10-21T06:07:52.912Z,28.57
2018-10-21T06:10:22.923Z,28.73
2018-10-21T06:12:51.928Z,28.30
2018-10-21T06:15:20.992Z,29.13
2018-10-21T06:17:50.021Z,28.90
2018-10-21T06:20:23.576Z,29.10
2018-10-21T06:22:53.528Z,32.27
2018-10-21T06:25:22.549Z,33.40
2018-10-21T06:27:51.568Z,33.20
2018-10-21T06:30:20.750Z,30.10
2018-10-21T06:32:49.768Z,29.03
2018-10-21T06:35:18.784Z,28.23
2018-10-21T06:37:47.863Z,27.47
2018-10-21T06:40:16.872Z,26.43
2018-10-21T06:42:45.908Z,27.77
2018-10-21T06:45:15.047Z,26.70
2018-10-21T06:47:43.977Z,25.50
2018-10-21T06:50:15.940Z,29.00
2018-10-21T06:52:45.615Z,31.90
2018-10-21T06:55:14.660Z,32.83
2018-10-21T06:57:44.584Z,30.80
2018-10-21T07:00:13.544Z,32.27
2018-10-21T07:02:42.595Z,31.73
2018-10-21T07:05:23.160Z,42.03
2018-10-21T07:07:52.323Z,36.07
2018-10-21T07:10:21.709Z,31.03
2018-10-21T07:12:51.038Z,31.53
2018-10-21T07:15:20.502Z,34.83
2018-10-21T18:30:35.990Z,11.60
2018-10-21T18:33:05.264Z,11.47
2018-10-21T18:35:34.233Z,13.83
2018-10-21T18:38:04.555Z,13.53
2018-10-21T18:40:33.675Z,13.60
2018-10-21T18:43:02.706Z,15.33
2018-10-21T18:45:32.158Z,14.40
2018-10-21T18:48:01.223Z,16.20
2018-10-21T18:50:30.265Z,16.17
2018-10-21T18:53:00.248Z,17.33
2018-10-21T18:55:30.143Z,18.57
2018-10-21T18:57:59.199Z,17.53
2018-10-21T19:17:46.673Z,15.53
2018-10-21T19:20:16.749Z,16.40
2018-10-21T19:22:45.791Z,15.77
2018-10-21T19:25:15.988Z,16.83
2018-10-21T19:27:45.571Z,17.17
2018-10-21T19:30:15.351Z,19.03
2018-10-21T19:32:44.677Z,18.80
2018-10-21T19:35:14.968Z,18.80
2018-10-21T19:37:44.006Z,17.50
2018-10-21T19:40:17.653Z,18.60
2018-10-21T19:42:46.827Z,18.63
2018-10-21T19:45:16.125Z,17.80
2018-10-21T19:47:45.165Z,18.80
2018-10-21T19:50:15.277Z,19.20
2018-10-21T19:52:44.527Z,17.70
2018-10-21T19:55:14.840Z,18.03
2018-10-21T19:57:43.971Z,18.00
2018-10-21T20:00:14.489Z,17.20
2018-10-21T20:02:43.973Z,17.60
2018-10-21T20:05:14.478Z,17.63
2018-10-21T20:07:43.603Z,16.43
2018-10-21T20:10:13.855Z,16.90
2018-10-21T20:12:42.904Z,18.03
2018-10-21T20:15:14.113Z,17.63
2018-10-21T20:17:43.140Z,16.70
2018-10-21T20:20:13.280Z,17.43
2018-10-21T20:22:42.356Z,17.90
